Time;durP1;ratioP1;P1;durP2;ratioP2;P2;SDS_P1;SDS_P2;PMS_P1;PMS_P2;Temp;Humidity;BMP_temperature;BMP_pressure;BME280_temperature;BME280_humidity;BME280_pressure;Samples;Min_cycle;Max_cycle;Signal;HPM_P1;HPM_P2
2022/05/28 00:01:06;;;;;;;1.87;0.57;;;;;;;10.14;68.21;100296.88;1728471;81;21027;-82
2022/05/28 00:03:34;;;;;;;5.43;0.90;;;;;;;10.15;68.17;100297.73;1728433;83;20954;-82
2022/05/28 00:06:01;;;;;;;8.80;1.20;;;;;;;10.14;68.31;100302.55;1728469;83;21426;-82
2022/05/28 00:08:29;;;;;;;3.53;0.90;;;;;;;10.14;68.02;100295.56;1728343;83;21114;-81
2022/05/28 00:10:58;;;;;;;5.03;1.17;;;;;;;10.13;67.94;100295.61;1728191;81;21058;-81
2022/05/28 00:13:25;;;;;;;5.50;1.07;;;;;;;10.11;67.86;100307.44;1728478;81;21071;-81
2022/05/28 00:15:52;;;;;;;5.53;1.10;;;;;;;10.08;67.82;100293.15;1728347;83;21610;-81
2022/05/28 00:18:19;;;;;;;5.27;1.00;;;;;;;10.06;67.72;100291.06;1728376;83;21062;-81
2022/05/28 00:20:47;;;;;;;4.03;1.00;;;;;;;10.04;67.69;100286.33;1728507;83;21061;-81
2022/05/28 00:23:14;;;;;;;8.03;1.10;;;;;;;10.01;67.59;100289.06;1729753;82;21442;-81
2022/05/28 00:25:41;;;;;;;8.90;1.30;;;;;;;9.97;67.60;100292.23;1730995;81;21055;-81
2022/05/28 00:28:08;;;;;;;4.37;1.03;;;;;;;9.96;67.65;100290.53;1730976;81;21039;-81
2022/05/28 00:30:35;;;;;;;5.93;1.30;;;;;;;9.97;67.76;100286.98;1749701;81;21091;-81
2022/05/28 00:33:02;;;;;;;5.50;1.00;;;;;;;9.99;67.80;100283.87;1737201;81;21095;-82
2022/05/28 00:35:29;;;;;;;4.67;0.97;;;;;;;10.00;67.75;100275.55;1730597;81;21036;-82
2022/05/28 00:37:57;;;;;;;3.23;1.00;;;;;;;10.02;67.61;100277.20;1731139;81;21051;-82
2022/05/28 00:40:26;;;;;;;4.03;0.90;;;;;;;10.05;67.75;100271.00;1730785;81;20931;-82
2022/05/28 00:42:59;;;;;;;4.90;0.75;;;;;;;10.08;67.60;100278.75;1742507;81;21023;-81
2022/05/28 00:45:29;;;;;;;5.87;1.53;;;;;;;10.13;67.57;100274.20;1767437;81;21126;-82
2022/05/28 00:47:59;;;;;;;4.45;1.37;;;;;;;10.14;67.39;100281.16;1732223;81;24607;-82
2022/05/28 00:50:26;;;;;;;5.70;1.20;;;;;;;10.16;67.29;100275.85;1731976;82;21118;-82
2022/05/28 00:52:54;;;;;;;6.27;1.40;;;;;;;10.17;67.16;100281.47;1728268;81;21086;-82
2022/05/28 00:55:22;;;;;;;4.30;1.50;;;;;;;10.18;67.21;100284.05;1728166;81;21067;-81
2022/05/28 00:57:50;;;;;;;5.27;1.40;;;;;;;10.19;67.14;100273.96;1727965;81;21166;-82
2022/05/28 01:00:21;;;;;;;3.53;1.10;;;;;;;10.21;67.03;100272.61;1727064;81;21040;-81
2022/05/28 01:03:00;;;;;;;6.00;1.20;;;;;;;10.22;66.93;100271.22;1727628;81;21043;-82
2022/05/28 01:05:44;;;;;;;4.07;1.00;;;;;;;10.23;66.90;100266.41;1727003;81;21046;-81
2022/05/28 01:08:25;;;;;;;5.00;1.20;;;;;;;10.24;66.90;100269.87;1727251;81;21654;-82
2022/05/28 01:11:06;;;;;;;5.20;1.10;;;;;;;10.22;66.79;100261.20;1712820;81;21081;-82
2022/05/28 01:14:12;;;;;;;4.57;1.13;;;;;;;10.21;66.67;100273.45;1699703;82;21025;-82
2022/05/28 01:16:45;;;;;;;5.10;1.20;;;;;;;10.18;66.51;100260.94;1699665;82;21501;-82
2022/05/28 01:19:43;;;;;;;5.13;0.90;;;;;;;10.16;66.45;100262.75;1698944;82;21013;-82
2022/05/28 01:22:37;;;;;;;5.53;1.33;;;;;;;10.12;66.40;100258.09;1699659;82;21212;-83
2022/05/28 01:25:24;;;;;;;5.10;1.10;;;;;;;10.08;66.42;100260.41;1699472;82;21102;-82
2022/05/28 01:28:11;;;;;;;3.43;1.10;;;;;;;10.04;66.55;100253.59;1699620;82;21518;-82
2022/05/28 01:30:41;;;;;;;3.87;0.93;;;;;;;10.02;66.55;100258.88;1699856;82;21002;-82
2022/05/28 01:33:09;;;;;;;5.90;1.20;;;;;;;10.01;66.59;100257.64;1699554;82;21068;-82
2022/05/28 01:35:37;;;;;;;5.77;1.47;;;;;;;10.00;66.56;100254.61;1699855;82;21311;-82
2022/05/28 01:38:07;;;;;;;5.03;1.37;;;;;;;10.00;66.59;100254.17;1699607;82;21959;-82
2022/05/28 01:40:36;;;;;;;6.97;1.10;;;;;;;10.00;66.64;100250.67;1699959;82;21506;-81
2022/05/28 01:43:07;;;;;;;6.60;1.07;;;;;;;10.02;66.82;100249.72;1717150;81;21601;-81
2022/05/28 01:45:36;;;;;;;9.27;1.50;;;;;;;10.06;67.11;100242.62;1717482;81;21013;-81
2022/05/28 01:48:06;;;;;;;5.63;1.20;;;;;;;10.08;66.79;100237.30;1717219;81;21049;-81
2022/05/28 01:50:38;;;;;;;4.87;1.15;;;;;;;10.06;66.77;100245.23;1717531;81;21769;-81
2022/05/28 01:53:08;;;;;;;3.47;0.93;;;;;;;10.04;66.68;100237.42;1717259;81;21053;-82
2022/05/28 01:55:41;;;;;;;3.00;0.98;;;;;;;10.03;66.66;100243.59;1717571;81;24623;-82
2022/05/28 01:58:08;;;;;;;3.57;1.10;;;;;;;10.01;66.66;100242.78;1750790;81;21638;-82
2022/05/28 02:00:35;;;;;;;5.43;1.20;;;;;;;10.02;66.84;100243.63;1751001;82;21044;-82
2022/05/28 02:03:03;;;;;;;3.20;0.93;;;;;;;10.01;66.77;100243.23;1750653;81;21129;-81
2022/05/28 02:05:31;;;;;;;3.83;0.93;;;;;;;10.00;66.68;100223.19;1750951;81;21468;-82
2022/05/28 02:07:58;;;;;;;6.47;1.23;;;;;;;9.99;66.71;100235.43;1750652;81;21041;-82
2022/05/28 02:10:25;;;;;;;5.67;1.10;;;;;;;9.99;66.76;100228.88;1749137;81;21045;-84
2022/05/28 02:13:10;;;;;;;4.30;1.07;;;;;;;9.97;66.66;100225.92;1742754;82;20994;-82
2022/05/28 02:16:01;;;;;;;6.10;1.30;;;;;;;9.94;66.60;100228.19;1742743;81;21519;-82
2022/05/28 02:18:36;;;;;;;3.00;1.00;;;;;;;9.90;66.63;100227.92;1742566;82;20997;-81
2022/05/28 02:21:42;;;;;;;3.93;0.80;;;;;;;9.89;66.81;100231.44;1741902;82;21072;-82
2022/05/28 02:24:23;;;;;;;4.70;0.90;;;;;;;9.86;66.68;100222.39;1742734;81;21026;-81
2022/05/28 02:26:57;;;;;;;6.90;1.13;;;;;;;9.86;66.97;100224.16;1742735;81;21505;-81
2022/05/28 02:29:25;;;;;;;4.00;1.00;;;;;;;9.80;66.74;100218.69;1742535;81;22185;-81
2022/05/28 02:31:52;;;;;;;6.17;1.10;;;;;;;9.74;66.76;100222.39;1742732;82;21010;-81
2022/05/28 02:34:19;;;;;;;5.63;1.13;;;;;;;9.69;66.75;100216.46;1742842;82;21558;-82
2022/05/28 02:36:46;;;;;;;2.40;0.90;;;;;;;9.65;66.84;100217.50;1742891;81;21160;-81
2022/05/28 02:39:13;;;;;;;5.27;0.90;;;;;;;9.62;66.80;100225.47;1742897;82;21064;-81
2022/05/28 02:41:40;;;;;;;7.07;0.93;;;;;;;9.58;67.01;100218.16;1742823;82;21136;-82
2022/05/28 02:44:09;;;;;;;5.50;0.93;;;;;;;9.56;66.93;100218.69;1742666;82;21542;-82
2022/05/28 02:46:36;;;;;;;3.50;0.77;;;;;;;9.52;66.90;100221.45;1742868;81;21048;-82
2022/05/28 02:49:03;;;;;;;4.50;1.10;;;;;;;9.50;67.03;100222.80;1742863;82;21054;-81
2022/05/28 02:51:31;;;;;;;4.57;0.70;;;;;;;9.47;66.99;100213.77;1742838;82;21048;-81
2022/05/28 02:53:58;;;;;;;5.93;0.73;;;;;;;9.46;67.11;100216.45;1742858;82;21135;-82
2022/05/28 02:56:25;;;;;;;5.50;1.07;;;;;;;9.44;67.03;100211.72;1743054;82;21546;-83
2022/05/28 02:58:52;;;;;;;5.80;0.93;;;;;;;9.43;67.05;100204.78;1742708;82;21463;-84
2022/05/28 03:01:34;;;;;;;4.10;0.90;;;;;;;9.43;67.26;100206.09;1743113;82;21049;-81
2022/05/28 03:04:04;;;;;;;3.93;0.90;;;;;;;9.46;67.40;100205.98;1742775;82;21021;-81
2022/05/28 03:06:32;;;;;;;3.87;1.02;;;;;;;9.48;67.49;100210.26;1743237;81;21108;-81
2022/05/28 03:08:59;;;;;;;2.77;0.87;;;;;;;9.51;67.60;100210.60;1742762;82;21041;-81
2022/05/28 03:11:26;;;;;;;7.20;1.00;;;;;;;9.50;67.51;100211.03;1746746;81;21052;-81
2022/05/28 03:13:53;;;;;;;3.37;0.87;;;;;;;9.51;67.58;100210.14;1750897;81;21013;-81
2022/05/28 03:16:20;;;;;;;4.20;0.93;;;;;;;9.52;67.57;100209.69;1750929;82;21013;-81
2022/05/28 03:18:46;;;;;;;4.17;0.77;;;;;;;9.51;67.50;100204.06;1750741;81;21523;-81
2022/05/28 03:21:14;;;;;;;2.13;0.67;;;;;;;9.50;67.55;100209.72;1750695;81;21546;-82
2022/05/28 03:23:41;;;;;;;4.87;1.00;;;;;;;9.49;67.55;100206.72;1751065;81;21502;-81
2022/05/28 03:26:19;;;;;;;5.40;0.93;;;;;;;9.49;67.47;100217.64;1750719;81;21135;-81
2022/05/28 03:28:47;;;;;;;5.50;1.30;;;;;;;9.44;67.46;100210.41;1750140;81;21001;-81
2022/05/28 03:31:13;;;;;;;5.67;1.00;;;;;;;9.42;67.56;100215.68;1750882;81;21115;-81
2022/05/28 03:33:41;;;;;;;5.17;0.97;;;;;;;9.38;67.51;100210.17;1751008;81;20992;-80
2022/05/28 03:36:09;;;;;;;6.10;1.00;;;;;;;9.36;67.58;100214.59;1750709;81;20997;-82
2022/05/28 03:38:36;;;;;;;3.53;0.87;;;;;;;9.35;67.59;100208.97;1751104;81;21033;-82
2022/05/28 03:41:04;;;;;;;2.87;0.80;;;;;;;9.34;67.50;100215.12;1750775;81;21629;-84
2022/05/28 03:43:32;;;;;;;3.97;0.80;;;;;;;9.34;67.43;100215.97;1750932;81;21114;-81
2022/05/28 03:45:59;;;;;;;2.10;0.70;;;;;;;9.33;67.43;100219.48;1750870;81;21048;-81
2022/05/28 03:48:27;;;;;;;3.20;1.00;;;;;;;9.34;67.39;100227.74;1751012;82;21051;-81
2022/05/28 03:50:54;;;;;;;3.63;0.60;;;;;;;9.32;67.28;100216.93;1750709;81;21009;-85
2022/05/28 03:53:21;;;;;;;6.70;0.83;;;;;;;9.32;67.31;100206.47;1750980;81;21481;-79
2022/05/28 03:55:48;;;;;;;5.07;0.77;;;;;;;9.31;67.32;100217.39;1750670;81;21511;-81
2022/05/28 03:58:15;;;;;;;2.40;0.70;;;;;;;9.31;67.34;100209.55;1751058;81;21017;-79
2022/05/28 04:00:42;;;;;;;5.40;0.90;;;;;;;9.34;67.37;100208.12;1750733;81;21504;-80
2022/05/28 04:03:09;;;;;;;3.67;0.80;;;;;;;9.37;67.26;100213.25;1751106;81;21045;-80
2022/05/28 04:05:38;;;;;;;5.17;0.80;;;;;;;9.36;67.21;100215.91;1750895;82;21574;-81
2022/05/28 04:08:07;;;;;;;5.47;0.73;;;;;;;9.38;67.33;100218.87;1670168;83;22030;-80
2022/05/28 04:10:34;;;;;;;5.30;0.90;;;;;;;9.38;67.33;100204.94;1732340;81;21010;-80
2022/05/28 04:13:01;;;;;;;3.43;0.90;;;;;;;9.40;67.51;100206.20;1687918;83;21066;-80
2022/05/28 04:15:28;;;;;;;5.27;1.00;;;;;;;9.43;67.33;100197.78;1734932;81;21065;-79
2022/05/28 04:17:55;;;;;;;4.83;0.90;;;;;;;9.46;67.22;100198.13;1690508;83;21090;-80
2022/05/28 04:20:22;;;;;;;7.70;0.87;;;;;;;9.46;67.32;100202.91;1734983;81;21814;-80
2022/05/28 04:22:49;;;;;;;2.43;0.63;;;;;;;9.50;67.21;100204.95;1690548;83;21132;-80
2022/05/28 04:25:17;;;;;;;3.53;0.87;;;;;;;9.54;67.38;100210.49;1734962;81;21049;-80
2022/05/28 04:27:44;;;;;;;4.30;0.83;;;;;;;9.57;67.25;100209.06;1686831;83;21519;-81
2022/05/28 04:30:12;;;;;;;4.50;0.73;;;;;;;9.61;67.24;100206.73;1667819;83;21035;-80
2022/05/28 04:32:39;;;;;;;4.93;0.70;;;;;;;9.66;67.15;100203.95;1749326;81;21106;-80
2022/05/28 04:35:08;;;;;;;4.63;0.70;;;;;;;9.69;67.14;100207.30;1743007;80;20961;-80
2022/05/28 04:37:34;;;;;;;3.60;0.63;;;;;;;9.74;67.06;100205.38;1732736;81;21042;-80
2022/05/28 04:40:02;;;;;;;3.57;0.90;;;;;;;9.78;67.06;100210.91;1732465;81;21030;-79
2022/05/28 04:42:29;;;;;;;3.33;0.80;;;;;;;9.83;66.89;100203.72;1732789;81;21784;-81
2022/05/28 04:44:56;;;;;;;7.30;1.10;;;;;;;9.86;66.91;100196.20;1732534;81;21465;-79
2022/05/28 04:47:24;;;;;;;6.30;0.70;;;;;;;9.91;66.88;100207.83;1732469;81;21083;-80
2022/05/28 04:49:50;;;;;;;2.93;0.50;;;;;;;9.93;66.89;100202.09;1755396;81;21110;-80
2022/05/28 04:52:17;;;;;;;5.27;0.90;;;;;;;9.95;66.93;100206.36;1760820;81;21027;-85
2022/05/28 04:54:44;;;;;;;3.83;0.60;;;;;;;9.98;66.74;100202.31;1766336;80;20996;-82
2022/05/28 04:57:11;;;;;;;4.63;1.03;;;;;;;9.99;66.59;100207.09;1770487;80;21088;-81
2022/05/28 04:59:38;;;;;;;4.97;0.90;;;;;;;10.01;66.45;100205.27;1765817;81;21082;-81
2022/05/28 05:02:06;;;;;;;6.40;1.00;;;;;;;10.02;66.48;100192.11;1768088;81;21165;-80
2022/05/28 05:04:33;;;;;;;6.47;0.90;;;;;;;10.04;66.37;100192.91;1766002;81;21061;-82
2022/05/28 05:07:01;;;;;;;6.70;1.13;;;;;;;10.08;66.50;100209.34;1767205;81;21031;-83
2022/05/28 05:09:28;;;;;;;4.60;0.80;;;;;;;10.11;66.48;100197.91;1763502;81;21128;-84
2022/05/28 05:11:55;;;;;;;3.37;0.73;;;;;;;10.15;66.58;100204.28;1764524;81;21083;-83
2022/05/28 05:14:22;;;;;;;4.23;0.83;;;;;;;10.19;66.25;100201.09;1739124;81;21004;-82
2022/05/28 05:16:49;;;;;;;2.73;0.73;;;;;;;10.24;66.27;100203.92;1719058;81;21523;-78
2022/05/28 05:19:19;;;;;;;3.47;0.80;;;;;;;10.29;66.08;100198.55;1745601;81;21040;-89
2022/05/28 05:21:49;;;;;;;;;;;;;;;10.26;65.80;100202.11;1758532;81;21086;-84
2022/05/28 05:24:15;;;;;;;8.83;2.00;;;;;;;10.27;65.97;100198.59;1726765;81;20467;-79
2022/05/28 05:26:42;;;;;;;5.10;0.93;;;;;;;10.32;66.03;100186.64;1729570;80;21576;-78
2022/05/28 05:29:09;;;;;;;3.53;0.80;;;;;;;10.37;66.01;100196.48;1729956;81;21021;-80
2022/05/28 05:31:36;;;;;;;4.57;0.83;;;;;;;10.37;65.87;100200.88;1729191;81;21006;-80
2022/05/28 05:34:04;;;;;;;5.07;1.10;;;;;;;10.37;65.74;100196.48;1749351;80;22647;-78
2022/05/28 05:36:31;;;;;;;6.20;1.40;;;;;;;10.38;65.80;100206.03;1748594;81;21037;-79
2022/05/28 05:38:57;;;;;;;5.53;1.20;;;;;;;10.37;65.83;100198.25;1688674;83;21058;-79
2022/05/28 05:41:24;;;;;;;5.70;1.00;;;;;;;10.39;65.80;100199.91;1691731;83;21059;-78
2022/05/28 05:43:51;;;;;;;5.23;1.00;;;;;;;10.45;65.84;100197.50;1728088;81;21040;-77
2022/05/28 05:46:18;;;;;;;2.70;0.77;;;;;;;10.53;65.82;100191.92;1725378;81;21946;-78
2022/05/28 05:48:46;;;;;;;4.77;0.83;;;;;;;10.60;65.87;100196.86;1725216;81;21540;-77
2022/05/28 05:51:16;;;;;;;6.20;1.40;;;;;;;10.66;65.74;100192.68;1685203;83;21554;-77
2022/05/28 05:53:43;;;;;;;6.37;0.90;;;;;;;10.67;65.45;100192.25;1732860;81;21056;-83
2022/05/28 05:56:11;;;;;;;4.60;0.93;;;;;;;10.63;65.39;100200.67;1754268;81;21092;-78
2022/05/28 05:58:38;;;;;;;4.73;0.90;;;;;;;10.63;65.22;100194.12;1729013;81;21137;-78
2022/05/28 06:01:07;;;;;;;4.47;0.73;;;;;;;10.61;65.16;100201.18;1729476;81;21117;-78
2022/05/28 06:03:34;;;;;;;5.33;0.97;;;;;;;10.61;65.15;100199.87;1729596;81;21518;-79
2022/05/28 06:06:04;;;;;;;6.87;1.00;;;;;;;10.60;65.07;100194.24;1729279;81;21551;-79
2022/05/28 06:08:32;;;;;;;4.63;0.87;;;;;;;10.60;65.22;100194.70;1729541;81;21093;-76
2022/05/28 06:10:59;;;;;;;4.50;1.00;;;;;;;10.66;65.28;100192.68;1729616;81;21706;-77
2022/05/28 06:13:26;;;;;;;5.80;1.27;;;;;;;10.72;65.50;100190.27;1743790;81;20992;-81
2022/05/28 06:15:53;;;;;;;4.23;0.80;;;;;;;10.79;65.39;100185.64;1745462;80;21244;-77
2022/05/28 06:18:21;;;;;;;7.87;1.10;;;;;;;10.85;65.30;100180.14;1751264;80;21024;-76
2022/05/28 06:20:51;;;;;;;6.57;1.53;;;;;;;10.91;65.26;100189.05;1756883;80;21013;-76
2022/05/28 06:23:19;;;;;;;5.78;1.70;;;;;;;11.00;65.35;100183.44;1743923;80;21839;-76
2022/05/28 06:25:46;;;;;;;2.77;0.80;;;;;;;11.12;65.38;100176.34;1743929;80;21467;-78
2022/05/28 06:28:13;;;;;;;3.57;0.87;;;;;;;11.20;65.00;100186.52;1744138;80;21095;-76
2022/05/28 06:30:43;;;;;;;3.00;0.60;;;;;;;11.21;64.42;100178.19;1757702;80;21521;-76
2022/05/28 06:33:10;;;;;;;5.93;1.00;;;;;;;11.21;64.08;100172.94;1748851;80;21487;-76
2022/05/28 06:35:37;;;;;;;3.53;0.80;;;;;;;11.24;64.11;100186.77;1740721;80;21130;-76
2022/05/28 06:38:04;;;;;;;3.23;0.80;;;;;;;11.25;63.99;100196.36;1740966;80;21507;-76
2022/05/28 06:40:32;;;;;;;2.03;0.63;;;;;;;11.23;63.51;100198.66;1740764;80;21038;-76
2022/05/28 06:42:58;;;;;;;4.55;0.70;;;;;;;11.20;63.41;100196.17;1740945;80;21813;-76
2022/05/28 06:45:26;;;;;;;3.70;0.83;;;;;;;11.20;63.28;100184.36;1740621;80;21037;-76
2022/05/28 06:47:53;;;;;;;5.50;0.90;;;;;;;11.24;63.32;100172.80;1741019;80;21114;-76
2022/05/28 06:53:08;;;;;;;2.62;0.80;;;;;;;11.38;62.94;100180.45;1740667;80;21048;-76
2022/05/28 06:55:36;;;;;;;2.87;0.63;;;;;;;11.46;62.36;100173.56;1741026;80;21056;-76
2022/05/28 06:58:06;;;;;;;3.93;1.10;;;;;;;11.54;62.28;100166.67;1740933;80;21551;-76
2022/05/28 07:00:35;;;;;;;4.70;0.97;;;;;;;11.60;62.10;100163.30;1740958;80;21136;-75
2022/05/28 07:03:04;;;;;;;4.33;0.80;;;;;;;11.66;62.07;100148.19;1740867;80;21668;-76
2022/05/28 07:05:31;;;;;;;2.40;0.80;;;;;;;11.71;61.90;100152.31;1740639;80;21084;-76
2022/05/28 07:07:58;;;;;;;1.82;0.60;;;;;;;11.72;61.69;100136.09;1740897;80;21050;-78
2022/05/28 07:10:25;;;;;;;5.53;1.00;;;;;;;11.72;61.31;100135.66;1740629;80;22265;-76
2022/05/28 07:12:52;;;;;;;4.12;1.57;;;;;;;11.70;61.29;100134.87;1736208;80;21117;-77
2022/05/28 07:15:20;;;;;;;2.65;0.70;;;;;;;11.68;61.06;100130.14;1736827;81;21525;-77
2022/05/28 07:17:47;;;;;;;4.80;0.82;;;;;;;11.68;60.95;100126.20;1702602;82;21080;-76
2022/05/28 07:20:14;;;;;;;2.95;0.88;;;;;;;11.72;61.32;100108.52;1750816;81;20985;-76
2022/05/28 07:22:41;;;;;;;5.97;0.68;;;;;;;11.83;61.83;100116.75;1750767;81;21740;-76
2022/05/28 07:25:10;;;;;;;4.15;0.70;;;;;;;11.89;61.26;100113.89;1750777;81;22015;-80
2022/05/28 07:27:37;;;;;;;5.93;0.90;;;;;;;11.88;61.10;100112.17;1750645;81;21510;-76
2022/05/28 07:30:06;;;;;;;6.15;0.85;;;;;;;11.89;61.08;100113.89;1751048;82;21013;-76
2022/05/28 07:32:33;;;;;;;6.62;1.02;;;;;;;11.91;60.99;100128.25;1750689;81;21136;-76
2022/05/28 07:35:00;;;;;;;4.40;0.95;;;;;;;11.94;60.58;100122.84;1750939;81;21005;-76
2022/05/28 07:37:31;;;;;;;3.33;0.90;;;;;;;11.97;60.57;100113.07;1750637;81;21932;-76
2022/05/28 07:39:59;;;;;;;3.62;0.82;;;;;;;12.02;59.83;100112.84;1750817;81;22386;-76
2022/05/28 07:42:29;;;;;;;4.17;0.60;;;;;;;12.09;59.11;100108.16;1750687;81;21362;-76
2022/05/28 07:44:56;;;;;;;6.67;0.93;;;;;;;12.15;58.92;100119.21;1750955;81;22220;-76
2022/05/28 07:47:23;;;;;;;3.33;0.60;;;;;;;12.21;58.51;100111.02;1750723;81;21076;-75
2022/05/28 07:49:50;;;;;;;3.35;0.95;;;;;;;12.28;58.71;100119.02;1750828;82;22046;-77
2022/05/28 07:52:17;;;;;;;4.80;0.60;;;;;;;12.33;57.96;100111.35;1750666;81;21021;-76
2022/05/28 07:54:44;;;;;;;5.50;0.90;;;;;;;12.31;57.82;100121.95;1750830;81;21037;-76
2022/05/28 07:57:11;;;;;;;3.08;0.60;;;;;;;12.27;56.82;100115.13;1750811;81;21045;-76
2022/05/28 07:59:38;;;;;;;5.22;1.05;;;;;;;12.30;57.06;100117.61;1750733;81;21045;-77
2022/05/28 08:02:05;;;;;;;2.20;0.70;;;;;;;12.42;56.98;100101.72;1750737;81;21129;-75
2022/05/28 08:04:33;;;;;;;2.67;0.60;;;;;;;12.62;57.39;100104.67;1750738;81;20929;-75
2022/05/28 08:07:02;;;;;;;2.62;0.70;;;;;;;12.77;57.11;100103.88;1750604;81;21032;-75
2022/05/28 08:09:29;;;;;;;6.25;1.30;;;;;;;12.86;56.95;100096.86;1751048;81;21079;-75
2022/05/28 08:11:56;;;;;;;2.98;0.80;;;;;;;12.90;56.54;100098.38;1750477;81;21563;-75
2022/05/28 08:14:23;;;;;;;2.47;0.65;;;;;;;12.94;56.33;100105.20;1742760;82;21953;-76
2022/05/28 08:16:50;;;;;;;5.67;0.80;;;;;;;13.00;56.42;100084.74;1742630;82;20990;-75
2022/05/28 08:19:17;;;;;;;5.42;1.07;;;;;;;13.04;56.21;100099.45;1742590;82;21044;-77
2022/05/28 08:24:29;;;;;;;4.17;0.60;;;;;;;12.97;55.71;100108.14;1742757;81;21061;-75
2022/05/28 08:27:00;;;;;;;3.27;1.10;;;;;;;12.95;56.10;100125.78;1742706;82;21165;-75
2022/05/28 08:29:27;;;;;;;4.00;1.25;;;;;;;12.87;55.89;100127.48;1742624;82;21017;-76
2022/05/28 08:31:54;;;;;;;5.08;0.90;;;;;;;12.66;56.02;100153.53;1743026;82;21017;-76
2022/05/28 08:34:21;;;;;;;4.08;1.00;;;;;;;12.35;56.43;100181.31;1742786;82;21566;-77
2022/05/28 08:36:48;;;;;;;5.20;1.10;;;;;;;11.89;57.23;100183.92;1723724;82;21000;-82
2022/05/28 08:39:16;;;;;;;4.72;0.85;;;;;;;11.38;57.98;100202.76;1742739;82;21106;-79
2022/05/28 08:41:52;;;;;;;5.87;1.37;;;;;;;10.73;59.45;100208.18;1742746;81;21116;-78
2022/05/28 08:44:25;;;;;;;5.63;1.17;;;;;;;10.19;60.76;100232.52;1742756;81;21081;-80
2022/05/28 08:47:06;;;;;;;5.10;1.23;;;;;;;9.78;62.05;100233.16;1742734;81;21021;-82
2022/05/28 08:49:37;;;;;;;4.10;1.03;;;;;;;9.40;63.39;100242.83;1739942;82;21318;-82
2022/05/28 08:52:14;;;;;;;3.97;1.10;;;;;;;9.12;64.80;100238.08;1742851;82;21136;-81
2022/05/28 08:54:59;;;;;;;4.90;0.67;;;;;;;8.94;65.74;100243.91;1742694;82;21528;-81
2022/05/28 08:57:49;;;;;;;3.33;0.97;;;;;;;8.79;66.15;100232.20;1743023;81;21049;-81
2022/05/28 09:00:19;;;;;;;;;;;;;;;8.66;67.64;100222.59;1745333;81;21037;-79
2022/05/28 09:02:54;;;;;;;2.80;1.00;;;;;;;8.61;68.46;100219.26;1743103;82;20497;-79
2022/05/28 09:05:32;;;;;;;4.40;0.73;;;;;;;8.64;68.80;100210.47;1742923;82;21860;-79
2022/05/28 09:08:03;;;;;;;4.67;0.70;;;;;;;8.74;69.19;100209.28;1712977;82;21104;-78
2022/05/28 09:10:38;;;;;;;4.37;0.80;;;;;;;8.86;69.68;100203.64;1742715;82;21033;-78
2022/05/28 09:13:13;;;;;;;2.50;0.70;;;;;;;8.97;70.66;100205.90;1745579;79;21304;-78
2022/05/28 09:15:42;;;;;;;3.47;1.00;;;;;;;9.11;70.39;100202.81;1727055;82;21057;-78
2022/05/28 09:18:12;;;;;;;2.70;1.02;;;;;;;9.25;70.57;100206.27;1750694;82;21121;-79
2022/05/28 09:20:44;;;;;;;3.00;0.80;;;;;;;9.39;71.09;100205.33;1751032;82;21040;-78
2022/05/28 09:23:12;;;;;;;4.93;1.20;;;;;;;9.57;71.36;100201.22;1750613;81;21065;-77
2022/05/28 09:25:43;;;;;;;2.23;1.03;;;;;;;9.77;71.60;100196.56;1750864;81;21073;-77
2022/05/28 09:28:35;;;;;;;3.97;0.90;;;;;;;9.97;72.07;100204.52;1750267;81;21029;-77
2022/05/28 09:31:28;;;;;;;4.33;0.80;;;;;;;10.22;71.98;100197.03;1733489;81;21137;-76
2022/05/28 09:34:15;;;;;;;2.67;0.73;;;;;;;10.48;72.35;100202.15;1687766;83;21560;-77
2022/05/28 09:36:57;;;;;;;4.13;0.80;;;;;;;10.78;71.98;100191.34;1734671;81;21464;-77
2022/05/28 09:39:44;;;;;;;3.73;0.83;;;;;;;11.06;72.05;100184.48;1689510;83;21012;-78
2022/05/28 09:42:49;;;;;;;2.00;0.73;;;;;;;11.36;71.74;100183.63;1688963;83;21695;-80
2022/05/28 09:45:34;;;;;;;5.73;0.90;;;;;;;11.52;70.53;100179.84;1726288;81;21180;-77
2022/05/28 09:48:01;;;;;;;4.43;1.53;;;;;;;11.66;69.91;100187.10;1723164;81;21010;-76
2022/05/28 09:50:42;;;;;;;3.97;0.90;;;;;;;11.79;69.25;100177.76;1725531;81;21019;-77
2022/05/28 09:56:09;;;;;;;3.62;0.88;;;;;;;12.26;69.33;100186.55;1717545;81;21033;-77
2022/05/28 09:58:40;;;;;;;2.58;0.68;;;;;;;12.35;68.04;100173.90;1717187;81;22003;-77
2022/05/28 10:01:23;;;;;;;4.50;0.90;;;;;;;12.41;67.40;100188.05;1717392;81;21041;-76
2022/05/28 10:06:51;;;;;;;7.20;1.52;;;;;;;12.33;66.25;100183.16;1703680;82;21056;-76
2022/05/28 10:09:26;;;;;;;4.40;1.30;;;;;;;12.27;66.12;100181.67;1716963;81;21001;-77
2022/05/28 10:12:00;;;;;;;4.55;1.20;;;;;;;12.26;65.65;100183.92;1717081;81;21745;-76
2022/05/28 10:14:31;;;;;;;6.67;1.67;;;;;;;12.26;65.33;100176.51;1709094;81;21104;-76
2022/05/28 10:17:04;;;;;;;5.47;1.10;;;;;;;12.30;65.21;100181.99;1707138;82;21006;-76
2022/05/28 10:19:48;;;;;;;2.87;0.93;;;;;;;12.36;65.08;100174.27;1707125;82;21295;-76
2022/05/28 10:22:19;;;;;;;2.80;0.70;;;;;;;12.44;64.98;100171.70;1741735;80;20997;-77
2022/05/28 10:24:53;;;;;;;2.62;0.72;;;;;;;12.57;64.62;100163.20;1742962;80;21984;-76
2022/05/28 10:27:37;;;;;;;2.27;0.60;;;;;;;12.79;64.40;100172.20;1742645;80;21045;-76
2022/05/28 10:30:10;;;;;;;3.20;0.72;;;;;;;12.91;64.27;100168.50;1742961;80;21057;-75
2022/05/28 10:32:48;;;;;;;2.35;0.95;;;;;;;12.94;63.41;100160.89;1737990;80;21056;-76
2022/05/28 10:35:26;;;;;;;3.25;0.72;;;;;;;12.96;63.61;100164.30;1742912;80;21040;-76
2022/05/28 10:37:56;;;;;;;4.47;1.25;;;;;;;12.95;63.23;100180.55;1739523;80;21137;-76
2022/05/28 10:40:27;;;;;;;3.50;0.70;;;;;;;12.83;62.89;100209.23;1741128;80;21083;-79
2022/05/28 10:43:03;;;;;;;2.70;0.90;;;;;;;12.47;62.61;100237.27;1742692;80;21041;-77
2022/05/28 10:45:45;;;;;;;5.03;1.80;;;;;;;11.88;62.87;100251.83;1742854;80;21080;-79
2022/05/28 10:48:51;;;;;;;3.27;1.70;;;;;;;11.46;63.99;100246.20;1742520;80;21002;-80
2022/05/28 10:51:49;;;;;;;2.67;1.30;;;;;;;11.07;64.62;100236.02;1742382;80;21341;-78
2022/05/28 10:54:48;;;;;;;1.50;0.57;;;;;;;10.89;66.22;100208.80;1742759;80;20986;-79
2022/05/28 10:57:54;;;;;;;2.40;1.12;;;;;;;11.32;67.65;100203.50;1742934;80;21542;-78
2022/05/28 11:00:48;;;;;;;1.45;0.70;;;;;;;11.84;68.17;100188.91;1742925;80;21596;-78
2022/05/28 11:03:52;;;;;;;4.65;1.10;;;;;;;12.42;68.62;100201.14;1742099;80;21057;-77
2022/05/28 11:06:41;;;;;;;1.27;0.72;;;;;;;13.04;68.35;100187.13;1742918;80;21131;-77
2022/05/28 11:09:48;;;;;;;2.77;1.30;;;;;;;13.56;67.58;100184.94;1742978;80;21072;-77
2022/05/28 11:12:43;;;;;;;1.57;0.68;;;;;;;13.88;66.97;100189.78;1743092;81;21048;-77
2022/05/28 11:15:34;;;;;;;2.47;0.80;;;;;;;14.29;65.80;100186.67;1754998;81;21454;-77
2022/05/28 11:18:37;;;;;;;2.10;0.90;;;;;;;14.62;65.36;100183.95;1761013;81;21633;-76
2022/05/28 11:21:49;;;;;;;2.70;0.70;;;;;;;14.85;64.45;100182.61;1760937;81;21186;-76
2022/05/28 11:24:48;;;;;;;2.77;0.98;;;;;;;14.60;63.14;100188.45;1761211;81;21005;-76
2022/05/28 11:27:55;;;;;;;2.72;0.70;;;;;;;14.71;63.37;100188.72;1760910;81;21049;-78
2022/05/28 11:30:45;;;;;;;1.67;0.65;;;;;;;14.59;62.38;100206.55;1705976;82;21047;-76
2022/05/28 11:33:39;;;;;;;10.50;2.33;;;;;;;14.18;61.57;100218.89;1755659;81;21064;-85
2022/05/28 11:36:22;;;;;;;4.08;0.95;;;;;;;13.85;62.49;100203.13;1761143;81;21204;-79
2022/05/28 11:39:01;;;;;;;2.47;0.80;;;;;;;13.63;63.61;100195.98;1760557;81;21466;-79
2022/05/28 11:41:43;;;;;;;3.30;0.75;;;;;;;13.93;64.57;100197.45;1760985;81;21009;-79
2022/05/28 11:44:30;;;;;;;2.20;0.60;;;;;;;14.44;65.86;100184.51;1760303;80;21039;-78
2022/05/28 11:47:03;;;;;;;4.25;1.15;;;;;;;15.09;64.61;100173.73;1744166;81;39363;-80
2022/05/28 11:52:45;;;;;;;3.22;1.10;;;;;;;15.80;62.46;100169.00;1689040;84;21045;-76
2022/05/28 11:55:20;;;;;;;3.50;1.10;;;;;;;15.97;61.35;100172.39;1744786;82;21569;-77
2022/05/28 11:58:01;;;;;;;3.52;1.02;;;;;;;15.87;60.30;100170.78;1697744;84;21027;-77
2022/05/28 12:00:36;;;;;;;5.80;1.90;;;;;;;15.81;59.96;100172.02;1743272;82;21024;-76
2022/05/28 12:03:17;;;;;;;2.47;1.02;;;;;;;15.64;59.05;100165.58;1697652;84;21135;-77
2022/05/28 12:05:54;;;;;;;2.22;0.78;;;;;;;15.71;59.20;100162.11;1744123;82;21065;-76
2022/05/28 12:08:49;;;;;;;3.05;1.00;;;;;;;16.10;58.43;100153.48;1743037;81;21035;-76